createdAt,value
2023-04-02T00:00:29.786Z,1240.00
2023-04-02T00:01:29.812Z,1213.00
2023-04-02T00:02:29.926Z,1187.00
2023-04-02T00:03:29.931Z,1217.00
2023-04-02T00:04:29.895Z,1191.00
2023-04-02T00:05:29.953Z,1185.00
2023-04-02T00:06:29.972Z,1177.00
2023-04-02T00:07:29.999Z,1165.00
2023-04-02T00:08:30.026Z,1127.00
2023-04-02T00:09:30.055Z,1115.00
2023-04-02T00:10:30.101Z,1085.00
2023-04-02T00:11:30.133Z,1098.00
2023-04-02T00:12:30.160Z,1122.00
2023-04-02T00:13:30.184Z,1180.00
2023-04-02T00:14:30.228Z,1216.00
2023-04-02T00:15:30.252Z,1253.00
2023-04-02T00:16:30.332Z,1249.00
2023-04-02T00:17:30.319Z,1266.00
2023-04-02T00:18:30.403Z,1252.00
2023-04-02T00:19:30.391Z,1256.00
2023-04-02T00:20:30.401Z,1231.00
2023-04-02T00:21:30.440Z,1229.00
2023-04-02T00:22:30.455Z,1219.00
2023-04-02T00:23:30.536Z,1216.00
2023-04-02T00:24:30.521Z,1230.00
2023-04-02T00:25:30.560Z,1187.00
2023-04-02T00:26:30.573Z,1194.00
2023-04-02T00:27:30.621Z,1219.00
2023-04-02T00:28:30.648Z,1254.00
2023-04-02T00:29:30.673Z,1249.00
2023-04-02T00:30:30.702Z,1238.00
2023-04-02T00:31:30.755Z,1264.00
2023-04-02T00:32:30.765Z,1238.00
2023-04-02T00:33:30.778Z,1229.00
2023-04-02T00:34:30.834Z,1200.00
2023-04-02T00:35:30.842Z,1181.00
2023-04-02T00:36:30.908Z,1171.00
2023-04-02T00:37:30.907Z,1239.00
2023-04-02T00:38:30.932Z,1280.00
2023-04-02T00:39:30.972Z,1304.00
2023-04-02T00:40:31.012Z,1311.00
2023-04-02T00:41:31.029Z,1284.00
2023-04-02T00:42:31.064Z,1303.00
2023-04-02T00:43:31.070Z,1323.00
2023-04-02T00:44:31.098Z,1328.00
2023-04-02T00:45:31.197Z,1339.00
2023-04-02T00:46:31.201Z,1359.00
2023-04-02T00:47:31.240Z,1383.00
2023-04-02T00:48:31.218Z,1419.00
2023-04-02T00:49:31.235Z,1423.00
2023-04-02T00:50:31.268Z,1407.00
2023-04-02T00:51:31.285Z,1438.00
2023-04-02T00:52:31.316Z,1432.00
2023-04-02T00:53:31.342Z,1413.00
2023-04-02T00:54:31.377Z,1425.00
2023-04-02T00:55:31.400Z,1420.00
2023-04-02T00:56:31.481Z,1414.00
2023-04-02T00:57:31.538Z,1418.00
2023-04-02T00:58:31.496Z,1399.00
2023-04-02T00:59:31.523Z,1417.00
2023-04-02T01:00:31.556Z,1424.00
2023-04-02T01:01:31.652Z,1386.00
2023-04-02T01:02:31.669Z,1348.00
2023-04-02T01:03:31.771Z,1334.00
2023-04-02T01:04:31.712Z,1313.00
2023-04-02T01:05:31.696Z,1304.00
2023-04-02T01:06:31.741Z,1307.00
2023-04-02T01:07:31.754Z,1300.00
2023-04-02T01:08:31.764Z,1324.00
2023-04-02T01:09:31.813Z,1327.00
2023-04-02T01:10:31.822Z,1305.00
2023-04-02T01:11:31.855Z,1327.00
2023-04-02T01:12:31.880Z,1321.00
2023-04-02T01:13:31.939Z,1356.00
2023-04-02T01:14:31.961Z,1358.00
2023-04-02T01:15:32.014Z,1388.00
2023-04-02T01:16:32.077Z,1394.00
2023-04-02T01:17:32.058Z,1384.00
2023-04-02T01:18:32.080Z,1402.00
2023-04-02T01:19:32.147Z,1386.00
2023-04-02T01:20:32.133Z,1404.00
2023-04-02T01:21:32.151Z,1376.00
2023-04-02T01:22:32.192Z,1382.00
2023-04-02T01:23:32.216Z,1378.00
2023-04-02T01:24:32.273Z,1371.00
2023-04-02T01:25:32.321Z,1367.00
2023-04-02T01:26:32.303Z,1360.00
2023-04-02T01:27:32.348Z,1366.00
2023-04-02T01:28:32.367Z,1390.00
2023-04-02T01:29:32.405Z,1378.00
2023-04-02T01:30:32.428Z,1365.00
2023-04-02T01:31:32.496Z,1378.00
2023-04-02T01:32:32.525Z,1335.00
2023-04-02T01:33:32.538Z,1345.00
2023-04-02T01:34:32.549Z,1350.00
2023-04-02T01:35:32.887Z,1349.00
2023-04-02T01:36:32.657Z,1356.00
2023-04-02T01:37:32.674Z,1330.00
2023-04-02T01:38:32.702Z,1328.00
2023-04-02T01:39:32.731Z,1288.00
2023-04-02T01:40:32.754Z,1311.00
2023-04-02T01:41:32.781Z,1340.00
2023-04-02T01:42:32.818Z,1365.00
2023-04-02T01:43:32.863Z,1363.00
2023-04-02T01:44:32.895Z,1382.00
2023-04-02T01:45:33.176Z,1396.00
2023-04-02T01:46:32.978Z,1366.00
2023-04-02T01:47:33.061Z,1349.00
2023-04-02T01:48:33.017Z,1346.00
2023-04-02T01:49:33.052Z,1334.00
2023-04-02T01:50:33.106Z,1376.00
2023-04-02T01:51:33.106Z,1456.00
2023-04-02T01:52:33.141Z,1527.00
2023-04-02T01:53:33.196Z,1502.00
2023-04-02T01:54:33.229Z,1494.00
2023-04-02T01:55:33.584Z,1499.00
2023-04-02T01:56:33.307Z,1456.00
2023-04-02T01:57:33.437Z,1433.00
2023-04-02T01:58:33.340Z,1425.00
2023-04-02T01:59:33.416Z,1403.00
2023-04-02T02:00:33.482Z,1406.00
2023-04-02T02:01:34.330Z,1386.00
2023-04-02T02:02:33.526Z,1414.00
2023-04-02T02:03:33.492Z,1439.00
2023-04-02T02:04:33.542Z,1409.00
2023-04-02T02:05:33.887Z,1427.00
2023-04-02T02:06:33.588Z,1371.00
2023-04-02T02:07:33.673Z,1374.00
2023-04-02T02:08:33.652Z,1381.00
2023-04-02T02:09:33.703Z,1374.00
2023-04-02T02:10:33.738Z,1366.00
2023-04-02T02:11:33.800Z,1351.00
2023-04-02T02:12:33.797Z,1338.00
2023-04-02T02:13:33.846Z,1332.00
2023-04-02T02:14:33.862Z,1321.00
2023-04-02T02:15:34.262Z,1350.00
2023-04-02T02:16:33.955Z,1362.00
2023-04-02T02:17:34.003Z,1359.00
2023-04-02T02:18:34.003Z,1367.00
2023-04-02T02:19:34.059Z,1347.00
2023-04-02T02:20:34.047Z,1322.00
2023-04-02T02:21:34.092Z,1294.00
2023-04-02T02:22:34.107Z,1265.00
2023-04-02T02:23:34.167Z,1278.00
2023-04-02T02:24:34.177Z,1289.00
2023-04-02T02:25:34.535Z,1281.00
2023-04-02T02:26:34.247Z,1301.00
2023-04-02T02:27:34.286Z,1274.00
2023-04-02T02:28:34.299Z,1269.00
2023-04-02T02:29:34.355Z,1323.00
2023-04-02T02:30:34.391Z,1401.00
2023-04-02T02:31:34.425Z,1379.00
2023-04-02T02:32:34.463Z,1357.00
2023-04-02T02:33:34.480Z,1349.00
2023-04-02T02:34:34.496Z,1335.00
2023-04-02T02:35:34.843Z,1323.00
2023-04-02T02:36:34.564Z,1359.00
2023-04-02T02:37:34.594Z,1389.00
2023-04-02T02:38:34.650Z,1400.00
2023-04-02T02:39:34.661Z,1403.00
2023-04-02T02:40:34.706Z,1386.00
2023-04-02T02:41:34.736Z,1397.00
2023-04-02T02:42:34.749Z,1404.00
2023-04-02T02:44:53.447Z,500.00
2023-04-02T02:45:53.451Z,500.00
2023-04-02T02:46:53.438Z,500.00
2023-04-02T02:47:53.475Z,500.00
2023-04-02T02:48:53.416Z,500.00
2023-04-02T02:49:53.416Z,509.00
2023-04-02T02:50:53.406Z,502.00
2023-04-02T02:51:53.403Z,502.00
2023-04-02T02:52:53.382Z,512.00
2023-04-02T02:53:53.376Z,507.00
2023-04-02T02:54:53.372Z,505.00
2023-04-02T02:55:53.365Z,504.00
2023-04-02T02:56:53.389Z,511.00
2023-04-02T02:57:53.386Z,505.00
2023-04-02T02:58:53.345Z,507.00
2023-04-02T02:59:53.334Z,500.00
2023-04-02T03:00:53.323Z,508.00
2023-04-02T03:01:53.345Z,500.00
2023-04-02T03:02:53.477Z,506.00
2023-04-02T03:03:53.413Z,501.00
2023-04-02T03:04:53.293Z,500.00
2023-04-02T03:05:53.302Z,496.00
2023-04-02T03:06:53.318Z,504.00
2023-04-02T03:07:53.284Z,511.00
2023-04-02T03:08:53.259Z,505.00
2023-04-02T03:09:53.258Z,513.00
2023-04-02T03:10:53.256Z,518.00
2023-04-02T03:11:53.235Z,514.00
2023-04-02T03:12:53.277Z,506.00
2023-04-02T03:13:53.218Z,512.00
2023-04-02T03:14:53.225Z,508.00
2023-04-02T03:15:53.260Z,514.00
2023-04-02T03:16:53.199Z,530.00
2023-04-02T03:17:53.258Z,532.00
2023-04-02T03:18:53.196Z,538.00
2023-04-02T03:19:53.179Z,542.00
2023-04-02T03:20:53.187Z,547.00
2023-04-02T03:21:53.174Z,542.00
2023-04-02T03:22:53.228Z,537.00
2023-04-02T03:23:53.172Z,545.00
2023-04-02T03:24:53.158Z,544.00
2023-04-02T03:25:53.164Z,534.00
2023-04-02T03:26:53.135Z,541.00
2023-04-02T03:27:53.150Z,538.00
2023-04-02T03:28:53.126Z,538.00
2023-04-02T03:29:53.128Z,538.00
2023-04-02T03:30:53.208Z,540.00
2023-04-02T03:31:53.187Z,546.00
2023-04-02T03:32:53.295Z,537.00
2023-04-02T03:33:53.262Z,542.00
2023-04-02T03:34:53.301Z,547.00
2023-04-02T03:35:53.343Z,547.00
2023-04-02T03:36:53.420Z,539.00
2023-04-02T03:37:53.397Z,531.00
2023-04-02T03:38:53.433Z,523.00
2023-04-02T03:39:53.465Z,511.00
2023-04-02T03:40:53.486Z,515.00
2023-04-02T03:41:53.536Z,504.00
2023-04-02T03:42:53.556Z,502.00
2023-04-02T03:43:53.605Z,506.00
2023-04-02T03:44:53.637Z,504.00
2023-04-02T03:45:53.667Z,505.00
2023-04-02T03:46:53.700Z,515.00
2023-04-02T03:47:53.776Z,500.00
2023-04-02T03:48:53.745Z,516.00
2023-04-02T03:49:53.784Z,500.00
2023-04-02T03:50:53.825Z,524.00
2023-04-02T03:51:53.851Z,537.00
2023-04-02T03:52:53.887Z,546.00
2023-04-02T03:53:53.912Z,557.00
2023-04-02T03:54:54.606Z,561.00
2023-04-02T03:55:53.984Z,559.00
2023-04-02T03:56:54.068Z,570.00
2023-04-02T03:57:54.064Z,580.00
2023-04-02T03:58:54.071Z,588.00
2023-04-02T03:59:54.126Z,595.00
2023-04-02T04:00:54.181Z,594.00
2023-04-02T04:01:54.231Z,595.00
2023-04-02T04:02:54.226Z,589.00
2023-04-02T04:03:54.310Z,598.00
2023-04-02T04:04:54.274Z,594.00
2023-04-02T04:05:54.326Z,596.00
2023-04-02T04:06:54.346Z,601.00
2023-04-02T04:07:54.386Z,609.00
2023-04-02T04:08:54.425Z,610.00
2023-04-02T04:09:54.449Z,615.00
2023-04-02T04:10:54.511Z,608.00
2023-04-02T04:11:54.501Z,594.00
2023-04-02T04:12:54.545Z,591.00
2023-04-02T04:13:54.571Z,602.00
2023-04-02T04:14:54.621Z,593.00
2023-04-02T04:15:54.645Z,589.00
2023-04-02T04:16:54.792Z,593.00
2023-04-02T04:17:54.721Z,591.00
2023-04-02T04:18:54.755Z,590.00
2023-04-02T04:19:54.784Z,589.00
2023-04-02T04:20:54.826Z,591.00
2023-04-02T04:21:54.845Z,607.00
2023-04-02T04:22:54.922Z,612.00
2023-04-02T04:23:54.923Z,598.00
2023-04-02T04:24:54.948Z,587.00
2023-04-02T04:25:55.006Z,574.00
2023-04-02T04:26:55.018Z,578.00
2023-04-02T04:27:55.080Z,562.00
2023-04-02T04:28:55.111Z,567.00
2023-04-02T04:29:55.138Z,555.00
2023-04-02T04:30:55.183Z,551.00
2023-04-02T04:31:55.287Z,542.00
2023-04-02T04:32:55.293Z,532.00
2023-04-02T04:33:55.282Z,533.00
2023-04-02T04:34:55.325Z,527.00
2023-04-02T04:35:55.374Z,530.00
2023-04-02T04:36:55.401Z,532.00
2023-04-02T04:37:55.422Z,531.00
2023-04-02T04:38:55.444Z,534.00
2023-04-02T04:39:55.484Z,539.00
2023-04-02T04:40:55.540Z,527.00
2023-04-02T04:41:55.557Z,529.00
2023-04-02T04:42:55.609Z,548.00
2023-04-02T04:43:55.640Z,585.00
2023-04-02T04:44:55.683Z,598.00
2023-04-02T04:45:55.785Z,608.00
2023-04-02T04:46:55.748Z,604.00
2023-04-02T04:47:55.840Z,593.00
2023-04-02T04:48:55.799Z,585.00
2023-04-02T04:49:55.832Z,594.00
2023-04-02T04:50:55.876Z,599.00
2023-04-02T04:51:55.915Z,586.00
2023-04-02T04:52:55.972Z,584.00
2023-04-02T04:53:55.979Z,578.00
2023-04-02T04:54:56.021Z,569.00
2023-04-02T04:55:58.288Z,571.00
2023-04-02T04:56:57.054Z,571.00
2023-04-02T04:57:56.026Z,571.00
2023-04-02T04:58:56.032Z,553.00
2023-04-02T04:59:56.032Z,550.00
2023-04-02T05:00:56.034Z,553.00
2023-04-02T05:01:56.106Z,559.00
2023-04-02T05:02:56.054Z,565.00
2023-04-02T05:03:55.996Z,570.00
2023-04-02T05:04:56.016Z,567.00
2023-04-02T05:05:55.977Z,566.00
2023-04-02T05:06:55.974Z,572.00
2023-04-02T05:07:56.772Z,583.00
2023-04-02T05:08:55.951Z,579.00
2023-04-02T05:09:55.989Z,573.00
2023-04-02T05:10:56.010Z,572.00
2023-04-02T05:11:56.061Z,574.00
2023-04-02T05:12:56.069Z,574.00
2023-04-02T05:13:56.119Z,571.00
2023-04-02T05:14:56.157Z,564.00
2023-04-02T05:15:56.206Z,551.00
2023-04-02T05:16:56.226Z,548.00
2023-04-02T05:17:56.304Z,553.00
2023-04-02T05:18:56.300Z,573.00
2023-04-02T05:19:56.335Z,582.00
2023-04-02T05:20:56.363Z,580.00
2023-04-02T05:21:56.408Z,575.00
2023-04-02T05:22:56.450Z,572.00
2023-04-02T05:23:56.493Z,567.00
2023-04-02T05:24:56.499Z,568.00
2023-04-02T05:25:56.530Z,555.00
2023-04-02T05:26:56.565Z,552.00
2023-04-02T05:27:56.615Z,556.00
2023-04-02T05:28:56.658Z,558.00
2023-04-02T05:29:56.776Z,551.00
2023-04-02T05:30:56.750Z,537.00
2023-04-02T05:31:56.799Z,528.00
2023-04-02T05:32:56.829Z,528.00
2023-04-02T05:33:56.826Z,508.00
2023-04-02T05:34:56.866Z,522.00
2023-04-02T05:35:56.929Z,523.00
2023-04-02T05:36:56.988Z,528.00
2023-04-02T05:37:56.985Z,539.00
2023-04-02T05:38:57.017Z,547.00
2023-04-02T05:39:57.063Z,540.00
2023-04-02T05:40:57.073Z,530.00
2023-04-02T05:41:57.148Z,523.00
2023-04-02T05:42:57.146Z,527.00
2023-04-02T05:43:57.175Z,530.00
2023-04-02T05:44:57.213Z,536.00
2023-04-02T05:45:57.264Z,534.00
2023-04-02T05:46:57.381Z,535.00
2023-04-02T05:47:57.377Z,536.00
2023-04-02T05:48:57.348Z,533.00
2023-04-02T05:49:57.382Z,546.00
2023-04-02T05:50:57.407Z,558.00
2023-04-02T05:51:57.757Z,555.00
2023-04-02T05:52:57.581Z,558.00
2023-04-02T05:53:57.527Z,565.00
2023-04-02T05:54:57.547Z,564.00
2023-04-02T05:55:57.576Z,560.00
2023-04-02T05:56:57.626Z,546.00
2023-04-02T05:58:21.229Z,540.00
2023-04-02T05:58:58.718Z,540.00
2023-04-02T05:59:57.624Z,541.00
2023-04-02T06:00:57.617Z,542.00
2023-04-02T06:01:57.630Z,547.00
2023-04-02T06:02:57.656Z,556.00
2023-04-02T06:03:57.641Z,562.00
2023-04-02T06:04:57.589Z,548.00
2023-04-02T06:05:57.585Z,551.00
2023-04-02T06:06:57.568Z,546.00
2023-04-02T06:07:57.568Z,545.00
2023-04-02T06:08:57.554Z,534.00
2023-04-02T06:09:57.545Z,538.00
2023-04-02T06:10:57.536Z,545.00
2023-04-02T06:11:57.566Z,557.00
2023-04-02T06:12:57.588Z,572.00
2023-04-02T06:13:57.613Z,573.00
2023-04-02T06:14:57.743Z,583.00
2023-04-02T06:15:57.677Z,583.00
2023-04-02T06:16:57.772Z,577.00
2023-04-02T06:17:57.756Z,598.00
2023-04-02T06:18:57.744Z,586.00
2023-04-02T06:19:57.794Z,594.00
2023-04-02T06:20:57.814Z,596.00
2023-04-02T06:21:57.822Z,591.00
2023-04-02T06:22:57.852Z,586.00
2023-04-02T06:23:57.897Z,582.00
2023-04-02T06:24:57.911Z,592.00
2023-04-02T06:25:57.935Z,588.00
2023-04-02T06:26:57.959Z,595.00
2023-04-02T06:27:57.977Z,589.00
2023-04-02T06:28:57.979Z,594.00
2023-04-02T06:29:58.000Z,589.00
2023-04-02T06:30:58.068Z,592.00
2023-04-02T06:31:58.029Z,588.00
2023-04-02T06:32:58.134Z,577.00
2023-04-02T06:33:58.056Z,574.00
2023-04-02T06:34:58.068Z,568.00
2023-04-02T06:35:58.124Z,570.00
2023-04-02T06:36:58.196Z,564.00
2023-04-02T06:37:58.117Z,564.00
2023-04-02T06:38:58.111Z,586.00
2023-04-02T06:39:58.111Z,597.00
2023-04-02T06:40:58.918Z,585.00
2023-04-02T06:41:58.117Z,589.00
2023-04-02T06:42:58.124Z,586.00
2023-04-02T06:43:58.129Z,584.00
2023-04-02T06:44:58.146Z,596.00
2023-04-02T06:45:58.191Z,588.00
2023-04-02T06:46:58.141Z,589.00
2023-04-02T06:47:58.195Z,604.00
2023-04-02T06:48:58.159Z,605.00
2023-04-02T06:49:58.153Z,598.00
2023-04-02T06:50:58.150Z,611.00
2023-04-02T06:51:58.177Z,609.00
2023-04-02T06:52:58.146Z,587.00
2023-04-02T06:53:58.144Z,588.00
2023-04-02T06:54:58.170Z,597.00
2023-04-02T06:55:58.136Z,587.00
2023-04-02T06:56:58.179Z,587.00
2023-04-02T06:57:58.236Z,594.00
2023-04-02T06:58:58.136Z,601.00
2023-04-02T06:59:58.147Z,595.00
2023-04-02T07:00:58.175Z,598.00
2023-04-02T07:01:58.205Z,605.00
2023-04-02T07:02:58.273Z,616.00
2023-04-02T07:03:58.286Z,596.00
2023-04-02T07:04:58.286Z,602.00
2023-04-02T07:05:58.276Z,609.00
2023-04-02T07:06:58.308Z,610.00
2023-04-02T07:07:58.357Z,618.00
2023-04-02T07:08:58.401Z,616.00
2023-04-02T07:09:58.448Z,623.00
2023-04-02T07:10:58.501Z,629.00
2023-04-02T07:11:58.556Z,629.00
2023-04-02T07:12:58.610Z,638.00
2023-04-02T07:13:58.664Z,620.00
2023-04-02T07:14:58.727Z,620.00
2023-04-02T07:15:58.842Z,621.00
2023-04-02T07:16:58.870Z,605.00
2023-04-02T07:17:58.962Z,602.00
2023-04-02T07:18:58.968Z,620.00
2023-04-02T07:19:59.019Z,627.00
2023-04-02T07:20:59.171Z,623.00
2023-04-02T07:21:59.169Z,617.00
2023-04-02T07:22:59.207Z,634.00
2023-04-02T07:23:59.265Z,618.00
2023-04-02T07:24:59.341Z,640.00
2023-04-02T07:25:59.397Z,644.00
2023-04-02T07:26:59.482Z,640.00
2023-04-02T07:27:59.496Z,638.00
2023-04-02T07:28:59.603Z,635.00
2023-04-02T07:29:59.647Z,648.00
2023-04-02T07:30:59.706Z,633.00
2023-04-02T07:31:59.783Z,635.00
2023-04-02T07:32:59.898Z,631.00
2023-04-02T07:33:59.940Z,641.00
2023-04-02T07:34:59.916Z,637.00
2023-04-02T07:36:00.009Z,629.00
2023-04-02T07:37:00.044Z,626.00
2023-04-02T07:38:00.112Z,629.00
2023-04-02T07:39:00.158Z,623.00
2023-04-02T07:40:00.204Z,612.00
2023-04-02T07:41:00.257Z,627.00
2023-04-02T07:42:00.327Z,619.00
2023-04-02T07:43:00.463Z,619.00
2023-04-02T07:44:00.428Z,616.00
2023-04-02T07:45:00.465Z,622.00
2023-04-02T07:46:00.537Z,615.00
2023-04-02T07:47:00.648Z,616.00
2023-04-02T07:48:00.670Z,623.00
2023-04-02T07:49:00.756Z,618.00
2023-04-02T07:50:00.764Z,616.00
2023-04-02T07:51:00.792Z,606.00
2023-04-02T07:52:00.840Z,603.00
2023-04-02T07:53:00.901Z,609.00
2023-04-02T07:54:00.999Z,611.00
2023-04-02T07:55:01.024Z,604.00
2023-04-02T07:56:01.104Z,600.00
2023-04-02T07:57:01.211Z,603.00
2023-04-02T07:58:01.206Z,610.00
2023-04-02T07:59:01.242Z,617.00
2023-04-02T08:00:01.301Z,621.00
2023-04-02T08:01:01.386Z,616.00
2023-04-02T08:02:01.494Z,607.00
2023-04-02T08:03:01.564Z,602.00
2023-04-02T08:04:01.567Z,596.00
2023-04-02T08:05:01.691Z,591.00
2023-04-02T08:06:01.649Z,597.00
2023-04-02T08:07:01.708Z,596.00
2023-04-02T08:08:01.767Z,583.00
2023-04-02T08:09:01.818Z,586.00
2023-04-02T08:10:01.869Z,591.00
2023-04-02T08:11:01.908Z,587.00
2023-04-02T08:12:01.971Z,574.00
2023-04-02T08:13:02.044Z,579.00
2023-04-02T08:14:02.111Z,577.00
2023-04-02T08:15:02.155Z,579.00
2023-04-02T08:16:02.228Z,587.00
2023-04-02T08:17:02.434Z,573.00
2023-04-02T08:18:02.389Z,566.00
2023-04-02T08:19:02.417Z,535.00
2023-04-02T08:20:02.444Z,534.00
2023-04-02T08:21:02.512Z,548.00
2023-04-02T08:22:02.564Z,547.00
2023-04-02T08:23:02.620Z,536.00
2023-04-02T08:24:02.693Z,520.00
2023-04-02T08:25:02.740Z,512.00
2023-04-02T08:26:02.775Z,520.00
2023-04-02T08:27:02.840Z,520.00
2023-04-02T08:28:03.006Z,504.00
2023-04-02T08:29:02.956Z,514.00
2023-04-02T08:30:03.022Z,531.00
2023-04-02T08:31:03.092Z,544.00
2023-04-02T08:32:03.115Z,543.00
2023-04-02T08:33:03.358Z,510.00
2023-04-02T08:34:03.255Z,508.00
2023-04-02T08:35:03.281Z,505.00
2023-04-02T08:36:03.357Z,507.00
2023-04-02T08:37:03.421Z,501.00
2023-04-02T08:38:03.436Z,510.00
2023-04-02T08:39:03.512Z,520.00
2023-04-02T08:40:03.561Z,498.00
2023-04-02T08:41:03.610Z,502.00
2023-04-02T08:42:03.650Z,528.00
2023-04-02T08:43:03.727Z,557.00
2023-04-02T08:44:03.783Z,556.00
2023-04-02T08:45:10.899Z,530.00
2023-04-02T08:46:04.867Z,530.00
2023-04-02T08:47:03.810Z,520.00
2023-04-02T08:48:03.858Z,511.00
2023-04-02T08:49:03.808Z,516.00
2023-04-02T08:50:03.874Z,511.00
2023-04-02T08:51:03.818Z,525.00
2023-04-02T08:52:03.775Z,513.00
2023-04-02T08:53:03.784Z,500.00
2023-04-02T08:54:03.793Z,508.00
2023-04-02T08:55:03.838Z,499.00
2023-04-02T08:56:03.878Z,504.00
2023-04-02T08:57:04.523Z,506.00
2023-04-02T08:58:04.012Z,504.00
2023-04-02T08:59:04.044Z,518.00
2023-04-02T09:00:04.109Z,523.00
2023-04-02T09:01:04.196Z,517.00
2023-04-02T09:02:04.281Z,512.00
2023-04-02T09:03:04.306Z,518.00
2023-04-02T09:04:04.353Z,502.00
2023-04-02T09:05:04.423Z,510.00
2023-04-02T09:06:04.460Z,522.00
2023-04-02T09:07:04.497Z,500.00
2023-04-02T09:08:04.550Z,518.00
2023-04-02T09:09:04.651Z,521.00
2023-04-02T09:10:04.688Z,528.00
2023-04-02T09:11:04.728Z,546.00
2023-04-02T09:12:04.877Z,511.00
2023-04-02T09:13:04.824Z,500.00
2023-04-02T09:14:04.917Z,543.00
2023-04-02T09:15:04.997Z,497.00
2023-04-02T09:16:05.067Z,508.00
2023-04-02T09:17:05.053Z,523.00
2023-04-02T09:18:05.134Z,541.00
2023-04-02T09:19:05.188Z,519.00
2023-04-02T09:20:05.215Z,514.00
2023-04-02T09:21:05.258Z,532.00
2023-04-02T09:22:05.326Z,515.00
2023-04-02T09:23:05.379Z,500.00
2023-04-02T09:24:05.503Z,500.00
2023-04-02T09:25:05.466Z,535.00
2023-04-02T09:26:05.532Z,514.00
2023-04-02T09:27:05.584Z,515.00
2023-04-02T09:28:05.671Z,500.00
2023-04-02T09:29:05.718Z,518.00
2023-04-02T09:30:05.752Z,525.00
2023-04-02T09:31:07.110Z,544.00
2023-04-02T09:32:05.876Z,551.00
2023-04-02T09:33:05.959Z,513.00
2023-04-02T09:34:05.993Z,529.00
2023-04-02T09:35:18.513Z,530.00
2023-04-02T09:36:07.071Z,502.00
2023-04-02T09:37:06.016Z,524.00
2023-04-02T09:38:06.003Z,486.00
2023-04-02T09:39:05.994Z,491.00
2023-04-02T09:40:05.990Z,486.00
2023-04-02T09:41:06.003Z,499.00
2023-04-02T09:42:06.137Z,492.00
2023-04-02T09:43:05.987Z,515.00
2023-04-02T09:44:05.996Z,542.00
2023-04-02T09:45:06.089Z,564.00
2023-04-02T09:46:06.106Z,570.00
2023-04-02T09:47:06.289Z,564.00
2023-04-02T09:48:06.274Z,564.00
2023-04-02T09:49:06.305Z,595.00
2023-04-02T09:50:06.342Z,587.00
2023-04-02T09:51:06.445Z,594.00
2023-04-02T09:52:06.451Z,614.00
2023-04-02T09:53:06.501Z,550.00
2023-04-02T09:54:06.561Z,507.00
2023-04-02T09:55:06.608Z,501.00
2023-04-02T09:56:06.693Z,540.00
2023-04-02T09:57:06.858Z,610.00
2023-04-02T09:58:06.776Z,609.00
2023-04-02T09:59:06.841Z,536.00
2023-04-02T10:01:06.989Z,581.00
2023-04-02T10:02:06.996Z,601.00
2023-04-02T10:03:07.137Z,615.00
2023-04-02T10:04:07.147Z,600.00
2023-04-02T10:05:07.165Z,558.00
2023-04-02T10:06:07.249Z,580.00
2023-04-02T10:07:07.302Z,588.00
2023-04-02T10:08:07.343Z,588.00
2023-04-02T10:09:07.397Z,579.00
2023-04-02T10:10:07.438Z,598.00
2023-04-02T10:11:07.500Z,574.00
2023-04-02T10:12:07.554Z,572.00
2023-04-02T10:13:07.627Z,584.00
2023-04-02T10:14:07.700Z,556.00
2023-04-02T10:15:07.761Z,549.00
2023-04-02T10:16:07.859Z,574.00
2023-04-02T10:17:07.946Z,608.00
2023-04-02T10:18:07.932Z,583.00
2023-04-02T10:19:08.067Z,577.00
2023-04-02T10:20:08.037Z,567.00
2023-04-02T10:21:08.075Z,581.00
2023-04-02T10:22:08.145Z,581.00
2023-04-02T10:23:08.195Z,589.00
2023-04-02T10:24:08.273Z,630.00
2023-04-02T10:25:08.319Z,555.00
2023-04-02T10:26:08.375Z,590.00
2023-04-02T10:27:08.427Z,581.00
2023-04-02T10:28:08.500Z,570.00
2023-04-02T10:29:08.558Z,625.00
2023-04-02T10:30:08.609Z,625.00
2023-04-02T10:31:08.690Z,617.00
2023-04-02T10:32:08.702Z,575.00
2023-04-02T10:33:08.784Z,598.00
2023-04-02T10:34:08.832Z,555.00
2023-04-02T10:35:08.890Z,588.00
2023-04-02T10:36:08.968Z,543.00
2023-04-02T10:37:08.978Z,583.00
2023-04-02T10:38:09.039Z,575.00
2023-04-02T10:39:09.108Z,586.00
2023-04-02T10:40:09.163Z,575.00
2023-04-02T10:41:09.298Z,571.00
2023-04-02T10:42:09.278Z,606.00
2023-04-02T10:43:09.324Z,597.00
2023-04-02T10:44:19.518Z,608.00
2023-04-02T10:45:10.404Z,608.00
2023-04-02T10:46:09.410Z,569.00
2023-04-02T10:47:09.367Z,579.00
2023-04-02T10:48:09.447Z,534.00
2023-04-02T10:49:09.421Z,568.00
2023-04-02T10:50:09.363Z,561.00
2023-04-02T10:51:09.333Z,522.00
2023-04-02T10:52:09.363Z,566.00
2023-04-02T10:53:09.331Z,544.00
2023-04-02T10:54:09.381Z,578.00
2023-04-02T10:55:09.427Z,593.00
2023-04-02T10:56:09.481Z,551.00
2023-04-02T10:57:09.643Z,545.00
2023-04-02T10:58:09.572Z,559.00
2023-04-02T10:59:09.620Z,555.00
2023-04-02T11:00:09.656Z,545.00
2023-04-02T11:01:09.798Z,564.00
2023-04-02T11:02:09.765Z,559.00
2023-04-02T11:03:09.893Z,538.00
2023-04-02T11:04:09.974Z,512.00
2023-04-02T11:05:09.925Z,501.00
2023-04-02T11:06:12.017Z,552.00
2023-04-02T11:07:14.397Z,576.00
2023-04-02T11:08:10.021Z,535.00
2023-04-02T11:09:10.017Z,563.00
2023-04-02T11:10:10.013Z,499.00
2023-04-02T11:11:10.020Z,520.00
2023-04-02T11:12:09.992Z,504.00
2023-04-02T11:13:09.993Z,559.00
2023-04-02T11:14:09.986Z,537.00
2023-04-02T11:15:10.000Z,577.00
2023-04-02T11:16:10.011Z,540.00
2023-04-02T11:17:09.990Z,544.00
2023-04-02T11:18:10.054Z,548.00
2023-04-02T11:19:10.111Z,498.00
2023-04-02T11:20:10.141Z,544.00
2023-04-02T11:21:10.212Z,558.00
2023-04-02T11:22:10.262Z,560.00
2023-04-02T11:23:10.337Z,558.00
2023-04-02T11:24:10.384Z,586.00
2023-04-02T11:25:10.419Z,592.00
2023-04-02T11:26:10.554Z,536.00
2023-04-02T11:27:10.529Z,545.00
2023-04-02T11:28:10.565Z,543.00
2023-04-02T11:29:10.600Z,540.00
2023-04-02T11:30:10.730Z,571.00
2023-04-02T11:31:10.751Z,563.00
2023-04-02T11:32:10.779Z,545.00
2023-04-02T11:33:10.868Z,595.00
2023-04-02T11:34:10.890Z,583.00
2023-04-02T11:35:10.930Z,527.00
2023-04-02T11:36:11.018Z,539.00
2023-04-02T11:37:11.060Z,563.00
2023-04-02T11:38:11.105Z,557.00
2023-04-02T11:39:17.324Z,546.00
2023-04-02T11:40:12.207Z,510.00
2023-04-02T11:41:11.140Z,499.00
2023-04-02T11:42:11.141Z,544.00
2023-04-02T11:43:11.111Z,544.00
2023-04-02T11:44:11.124Z,553.00
2023-04-02T11:45:11.112Z,493.00
2023-04-02T11:46:11.371Z,468.00
2023-04-02T11:47:11.098Z,609.00
2023-04-02T11:48:11.187Z,537.00
2023-04-02T11:49:11.183Z,553.00
2023-04-02T11:50:11.201Z,503.00
2023-04-02T11:51:11.259Z,537.00
2023-04-02T11:52:12.617Z,533.00
2023-04-02T11:53:11.400Z,504.00
2023-04-02T11:54:11.430Z,568.00
2023-04-02T11:55:11.484Z,533.00
2023-04-02T11:56:11.567Z,524.00
2023-04-02T11:57:11.612Z,541.00
2023-04-02T11:58:11.649Z,557.00
2023-04-02T11:59:11.719Z,567.00
2023-04-02T12:00:11.766Z,540.00
2023-04-02T12:01:11.790Z,531.00
2023-04-02T12:02:11.885Z,549.00
2023-04-02T12:03:11.937Z,547.00
2023-04-02T12:04:11.965Z,550.00
2023-04-02T12:05:12.057Z,590.00
2023-04-02T12:06:12.075Z,558.00
2023-04-02T12:07:12.129Z,586.00
2023-04-02T12:08:12.193Z,537.00
2023-04-02T12:09:12.252Z,534.00
2023-04-02T12:10:12.387Z,521.00
2023-04-02T12:11:12.355Z,546.00
2023-04-02T12:12:12.427Z,578.00
2023-04-02T12:13:12.456Z,598.00
2023-04-02T12:14:12.525Z,583.00
2023-04-02T12:15:12.574Z,579.00
2023-04-02T12:16:12.626Z,600.00
2023-04-02T12:17:12.821Z,576.00
2023-04-02T12:18:12.720Z,549.00
2023-04-02T12:19:12.766Z,554.00
2023-04-02T12:20:12.834Z,514.00
2023-04-02T12:21:12.891Z,572.00
2023-04-02T12:22:12.923Z,537.00
2023-04-02T12:23:12.993Z,547.00
2023-04-02T12:24:13.042Z,512.00
2023-04-02T12:25:13.101Z,551.00
2023-04-02T12:26:13.166Z,575.00